Whiting Field Naval Air Station North Airport
KNSE : now visible

Airfield :











YOU CAN JOIN US ON...

 
LOGIN :

Register | Disclaimer

   EN    FR    IT 

 









Legend :    VFR   Marginal VFR   IFR   Intensive IFR   Very Intensive IFR
Visi :
Ceiling :
>= 8 km
>= 3000ft
5 to 8 km
1000 to 3000 ft
1500m to 5 km
500 to 1000 ft
800 to 1500m
200 to 500 ft
< 800m
< 200 ft
Symbols :   Thunderstorms  Fog  Heavy snow  Heavy precipitations  Wind > 20 kt






- Airport Elevation : 199 ft


KNSE - Whiting Field Naval Air Station North

CURRENT METAR :
  • 021256Z 09007KT 10SM BKN021 09/07 A3034 RMK AO2 SLP264 T00940067 $

EXPIRED METARs :
  • 021156Z 09009KT 10SM BKN020 09/07 A3033 RMK AO2 SLP260 7//// T00940067 10094 20033 53003 $
  • 021056Z AUTO 07006KT 10SM OVC017 09/06 A3032 RMK AO2 SLP256 T00890056 $
  • 021033Z AUTO VRB05KT 10SM BKN020 07/04 A3032 RMK AO2 T00720044 $

TAF AMD TAF KNSE
Valid from the 02 at 11:00 until the 03 at 07:00 UTC


0211/0307 09006KT 9999 BKN020 QNH3030INS
TEMPO 0211/0215 SCT020
FM021500 10008KT 9999 SCT025 BKN035 BKN250 QNH3031INS
TEMPO 0215/0218 BKN025
FM022000 13008KT 9999 SCT030 SCT150 BKN250 QNH3024INS
FM030200 13006KT 9999 SCT010 BKN025 BKN120 QNH3026INS AUTOMATED SENSOR METWATCH 0207 TIL 0212 T10/0212Z T22/0219Z AMD 1112 FN20071
KZJX FIR / North America



MET'MAP, your aeronautical weather chart ! - Copyright ORBIFLY December 2007 - Disclaimer

ORBIFLY MET'MAP TEAM :

Programming & Development : Alexandra Zaïnal
Original concept : Baudouin d'Aumeries
Technical & hardware support : Manuel Goepfert
Assistance : Marc-Olivier Méhu




SOURCES & CREDITS :

   NOAA       Earth
Advisory